sensor_id;sensor_type;location;lat;lon;timestamp;P1;durP1;ratioP1;P2;durP2;ratioP2
71888;SDS011;59762;49.998;14.858;2023-08-12T00:00:09;4.85;;;3.30;;
71888;SDS011;59762;49.998;14.858;2023-08-12T00:02:59;6.28;;;3.10;;
71888;SDS011;59762;49.998;14.858;2023-08-12T00:05:24;5.35;;;3.50;;
71888;SDS011;59762;49.998;14.858;2023-08-12T00:07:50;4.55;;;3.63;;
71888;SDS011;59762;49.998;14.858;2023-08-12T00:10:16;4.47;;;3.25;;
71888;SDS011;59762;49.998;14.858;2023-08-12T00:12:42;4.72;;;3.40;;
71888;SDS011;59762;49.998;14.858;2023-08-12T00:15:08;5.72;;;3.40;;
71888;SDS011;59762;49.998;14.858;2023-08-12T00:17:35;5.55;;;3.75;;
71888;SDS011;59762;49.998;14.858;2023-08-12T00:20:02;5.88;;;3.67;;
71888;SDS011;59762;49.998;14.858;2023-08-12T00:22:35;9.13;;;3.45;;
71888;SDS011;59762;49.998;14.858;2023-08-12T00:25:01;3.97;;;3.35;;
71888;SDS011;59762;49.998;14.858;2023-08-12T00:27:28;4.10;;;3.30;;
71888;SDS011;59762;49.998;14.858;2023-08-12T00:29:53;5.10;;;3.33;;
71888;SDS011;59762;49.998;14.858;2023-08-12T00:32:19;4.32;;;3.10;;
71888;SDS011;59762;49.998;14.858;2023-08-12T00:34:45;5.00;;;3.40;;
71888;SDS011;59762;49.998;14.858;2023-08-12T00:37:11;5.38;;;3.35;;
71888;SDS011;59762;49.998;14.858;2023-08-12T00:39:36;4.55;;;3.45;;
71888;SDS011;59762;49.998;14.858;2023-08-12T00:42:02;3.85;;;3.10;;
71888;SDS011;59762;49.998;14.858;2023-08-12T00:44:28;4.30;;;3.40;;
71888;SDS011;59762;49.998;14.858;2023-08-12T00:46:53;5.47;;;3.28;;
71888;SDS011;59762;49.998;14.858;2023-08-12T00:49:20;6.60;;;3.40;;
71888;SDS011;59762;49.998;14.858;2023-08-12T00:51:46;5.45;;;4.07;;
71888;SDS011;59762;49.998;14.858;2023-08-12T00:54:14;4.13;;;3.30;;
71888;SDS011;59762;49.998;14.858;2023-08-12T00:56:42;5.53;;;3.50;;
71888;SDS011;59762;49.998;14.858;2023-08-12T00:59:08;3.67;;;3.20;;
71888;SDS011;59762;49.998;14.858;2023-08-12T01:01:35;5.60;;;4.07;;
71888;SDS011;59762;49.998;14.858;2023-08-12T01:04:03;8.48;;;3.72;;
71888;SDS011;59762;49.998;14.858;2023-08-12T01:06:29;5.70;;;3.45;;
71888;SDS011;59762;49.998;14.858;2023-08-12T01:08:55;7.00;;;3.65;;
71888;SDS011;59762;49.998;14.858;2023-08-12T01:11:24;4.57;;;3.40;;
71888;SDS011;59762;49.998;14.858;2023-08-12T01:14:14;4.18;;;3.20;;
71888;SDS011;59762;49.998;14.858;2023-08-12T01:16:43;11.20;;;3.83;;
71888;SDS011;59762;49.998;14.858;2023-08-12T01:19:16;4.50;;;3.42;;
71888;SDS011;59762;49.998;14.858;2023-08-12T01:21:59;5.90;;;3.55;;
71888;SDS011;59762;49.998;14.858;2023-08-12T01:24:26;4.63;;;3.55;;
71888;SDS011;59762;49.998;14.858;2023-08-12T01:26:58;5.68;;;3.10;;
71888;SDS011;59762;49.998;14.858;2023-08-12T01:29:24;7.53;;;3.70;;
71888;SDS011;59762;49.998;14.858;2023-08-12T01:31:55;4.72;;;3.90;;
71888;SDS011;59762;49.998;14.858;2023-08-12T01:37:34;4.93;;;3.42;;
71888;SDS011;59762;49.998;14.858;2023-08-12T01:40:02;8.38;;;3.30;;
71888;SDS011;59762;49.998;14.858;2023-08-12T01:42:30;4.63;;;3.53;;
71888;SDS011;59762;49.998;14.858;2023-08-12T01:44:57;5.03;;;3.53;;
71888;SDS011;59762;49.998;14.858;2023-08-12T01:47:23;4.45;;;3.40;;
71888;SDS011;59762;49.998;14.858;2023-08-12T01:49:49;5.60;;;3.38;;
71888;SDS011;59762;49.998;14.858;2023-08-12T01:52:15;5.55;;;3.90;;
71888;SDS011;59762;49.998;14.858;2023-08-12T01:54:41;6.70;;;3.33;;
71888;SDS011;59762;49.998;14.858;2023-08-12T01:57:06;5.03;;;3.45;;
71888;SDS011;59762;49.998;14.858;2023-08-12T01:59:34;6.72;;;3.42;;
71888;SDS011;59762;49.998;14.858;2023-08-12T02:02:00;4.03;;;3.30;;
71888;SDS011;59762;49.998;14.858;2023-08-12T02:04:26;4.55;;;3.30;;
71888;SDS011;59762;49.998;14.858;2023-08-12T02:06:53;8.80;;;3.42;;
71888;SDS011;59762;49.998;14.858;2023-08-12T02:09:19;6.05;;;3.67;;
71888;SDS011;59762;49.998;14.858;2023-08-12T02:11:45;5.03;;;3.63;;
71888;SDS011;59762;49.998;14.858;2023-08-12T02:14:11;5.03;;;3.45;;
71888;SDS011;59762;49.998;14.858;2023-08-12T02:16:37;5.70;;;3.20;;
71888;SDS011;59762;49.998;14.858;2023-08-12T02:19:02;4.63;;;3.60;;
71888;SDS011;59762;49.998;14.858;2023-08-12T02:21:28;5.78;;;3.65;;
71888;SDS011;59762;49.998;14.858;2023-08-12T02:23:54;4.78;;;3.45;;
71888;SDS011;59762;49.998;14.858;2023-08-12T02:26:20;7.65;;;3.75;;
71888;SDS011;59762;49.998;14.858;2023-08-12T02:28:45;5.05;;;3.78;;
71888;SDS011;59762;49.998;14.858;2023-08-12T02:31:11;6.70;;;3.72;;
71888;SDS011;59762;49.998;14.858;2023-08-12T02:33:37;6.35;;;3.72;;
71888;SDS011;59762;49.998;14.858;2023-08-12T02:36:03;10.00;;;4.00;;
71888;SDS011;59762;49.998;14.858;2023-08-12T02:38:29;5.10;;;3.97;;
71888;SDS011;59762;49.998;14.858;2023-08-12T02:40:54;4.38;;;3.90;;
71888;SDS011;59762;49.998;14.858;2023-08-12T02:43:20;5.82;;;4.07;;
71888;SDS011;59762;49.998;14.858;2023-08-12T02:45:46;5.35;;;3.65;;
71888;SDS011;59762;49.998;14.858;2023-08-12T02:48:12;5.55;;;3.90;;
71888;SDS011;59762;49.998;14.858;2023-08-12T02:50:38;6.28;;;4.38;;
71888;SDS011;59762;49.998;14.858;2023-08-12T02:53:04;6.20;;;3.60;;
71888;SDS011;59762;49.998;14.858;2023-08-12T02:55:31;7.07;;;4.10;;
71888;SDS011;59762;49.998;14.858;2023-08-12T02:57:57;12.88;;;3.95;;
71888;SDS011;59762;49.998;14.858;2023-08-12T03:00:24;5.38;;;3.90;;
71888;SDS011;59762;49.998;14.858;2023-08-12T03:02:49;5.88;;;4.00;;
71888;SDS011;59762;49.998;14.858;2023-08-12T03:05:15;6.68;;;3.80;;
71888;SDS011;59762;49.998;14.858;2023-08-12T03:07:41;8.10;;;4.30;;
71888;SDS011;59762;49.998;14.858;2023-08-12T03:10:07;7.07;;;3.85;;
71888;SDS011;59762;49.998;14.858;2023-08-12T03:12:33;4.53;;;3.70;;
71888;SDS011;59762;49.998;14.858;2023-08-12T03:15:00;5.00;;;3.63;;
71888;SDS011;59762;49.998;14.858;2023-08-12T03:17:26;5.70;;;3.22;;
71888;SDS011;59762;49.998;14.858;2023-08-12T03:19:52;5.60;;;3.88;;
71888;SDS011;59762;49.998;14.858;2023-08-12T03:22:19;6.00;;;3.70;;
71888;SDS011;59762;49.998;14.858;2023-08-12T03:24:46;5.10;;;3.50;;
71888;SDS011;59762;49.998;14.858;2023-08-12T03:27:12;5.00;;;4.00;;
71888;SDS011;59762;49.998;14.858;2023-08-12T03:29:38;5.90;;;3.90;;
71888;SDS011;59762;49.998;14.858;2023-08-12T03:32:04;5.43;;;3.83;;
71888;SDS011;59762;49.998;14.858;2023-08-12T03:34:29;5.72;;;3.83;;
71888;SDS011;59762;49.998;14.858;2023-08-12T03:36:55;8.48;;;4.50;;
71888;SDS011;59762;49.998;14.858;2023-08-12T03:39:21;6.53;;;4.00;;
71888;SDS011;59762;49.998;14.858;2023-08-12T03:41:46;6.38;;;3.78;;
71888;SDS011;59762;49.998;14.858;2023-08-12T03:44:12;5.32;;;3.80;;
71888;SDS011;59762;49.998;14.858;2023-08-12T03:46:38;5.72;;;3.83;;
71888;SDS011;59762;49.998;14.858;2023-08-12T03:49:04;8.40;;;4.22;;
71888;SDS011;59762;49.998;14.858;2023-08-12T03:51:29;8.35;;;4.28;;
71888;SDS011;59762;49.998;14.858;2023-08-12T03:53:55;4.85;;;4.00;;
71888;SDS011;59762;49.998;14.858;2023-08-12T03:56:22;6.38;;;4.10;;
71888;SDS011;59762;49.998;14.858;2023-08-12T03:58:48;6.72;;;4.10;;
71888;SDS011;59762;49.998;14.858;2023-08-12T04:01:13;10.82;;;4.82;;
71888;SDS011;59762;49.998;14.858;2023-08-12T04:03:39;5.75;;;4.30;;
71888;SDS011;59762;49.998;14.858;2023-08-12T04:06:04;4.57;;;3.70;;
71888;SDS011;59762;49.998;14.858;2023-08-12T04:08:30;5.53;;;4.10;;
71888;SDS011;59762;49.998;14.858;2023-08-12T04:10:57;8.43;;;4.07;;
71888;SDS011;59762;49.998;14.858;2023-08-12T04:13:23;7.45;;;3.85;;
71888;SDS011;59762;49.998;14.858;2023-08-12T04:15:49;5.20;;;4.22;;
71888;SDS011;59762;49.998;14.858;2023-08-12T04:18:16;5.28;;;3.67;;
71888;SDS011;59762;49.998;14.858;2023-08-12T04:20:42;3.83;;;3.35;;
71888;SDS011;59762;49.998;14.858;2023-08-12T04:23:08;5.28;;;4.10;;
71888;SDS011;59762;49.998;14.858;2023-08-12T04:25:33;6.88;;;3.75;;
71888;SDS011;59762;49.998;14.858;2023-08-12T04:27:59;4.65;;;3.55;;
71888;SDS011;59762;49.998;14.858;2023-08-12T04:30:24;4.63;;;4.00;;
71888;SDS011;59762;49.998;14.858;2023-08-12T04:32:51;5.25;;;4.00;;
71888;SDS011;59762;49.998;14.858;2023-08-12T04:35:17;4.72;;;3.38;;
71888;SDS011;59762;49.998;14.858;2023-08-12T04:37:43;5.30;;;3.80;;
71888;SDS011;59762;49.998;14.858;2023-08-12T04:40:08;5.25;;;3.88;;
71888;SDS011;59762;49.998;14.858;2023-08-12T04:42:35;5.47;;;4.28;;
71888;SDS011;59762;49.998;14.858;2023-08-12T04:45:00;5.85;;;3.90;;
71888;SDS011;59762;49.998;14.858;2023-08-12T04:47:26;4.72;;;4.15;;
71888;SDS011;59762;49.998;14.858;2023-08-12T04:49:52;7.28;;;4.05;;
71888;SDS011;59762;49.998;14.858;2023-08-12T04:52:17;4.20;;;3.80;;
71888;SDS011;59762;49.998;14.858;2023-08-12T04:54:43;4.65;;;3.97;;
71888;SDS011;59762;49.998;14.858;2023-08-12T04:57:09;7.00;;;4.43;;
71888;SDS011;59762;49.998;14.858;2023-08-12T04:59:35;5.45;;;3.95;;
71888;SDS011;59762;49.998;14.858;2023-08-12T05:02:01;5.47;;;4.20;;
71888;SDS011;59762;49.998;14.858;2023-08-12T05:04:27;4.95;;;3.72;;
71888;SDS011;59762;49.998;14.858;2023-08-12T05:06:53;5.95;;;4.00;;
71888;SDS011;59762;49.998;14.858;2023-08-12T05:09:18;8.15;;;4.22;;
71888;SDS011;59762;49.998;14.858;2023-08-12T05:11:44;7.88;;;4.03;;
71888;SDS011;59762;49.998;14.858;2023-08-12T05:14:10;4.22;;;3.78;;
71888;SDS011;59762;49.998;14.858;2023-08-12T05:16:35;6.70;;;4.18;;
71888;SDS011;59762;49.998;14.858;2023-08-12T05:19:01;7.05;;;4.13;;
71888;SDS011;59762;49.998;14.858;2023-08-12T05:21:27;6.75;;;4.00;;
71888;SDS011;59762;49.998;14.858;2023-08-12T05:23:52;10.15;;;3.70;;
71888;SDS011;59762;49.998;14.858;2023-08-12T05:26:18;4.15;;;3.28;;
71888;SDS011;59762;49.998;14.858;2023-08-12T05:28:45;6.47;;;2.97;;
71888;SDS011;59762;49.998;14.858;2023-08-12T05:31:11;7.88;;;3.35;;
71888;SDS011;59762;49.998;14.858;2023-08-12T05:33:36;4.85;;;3.47;;
71888;SDS011;59762;49.998;14.858;2023-08-12T05:36:02;4.63;;;3.20;;
71888;SDS011;59762;49.998;14.858;2023-08-12T05:38:28;8.88;;;4.05;;
71888;SDS011;59762;49.998;14.858;2023-08-12T05:40:54;4.28;;;3.10;;
71888;SDS011;59762;49.998;14.858;2023-08-12T05:43:19;7.65;;;3.45;;
71888;SDS011;59762;49.998;14.858;2023-08-12T05:45:45;7.75;;;2.90;;
71888;SDS011;59762;49.998;14.858;2023-08-12T05:48:11;4.68;;;3.00;;
71888;SDS011;59762;49.998;14.858;2023-08-12T05:50:36;3.58;;;2.90;;
71888;SDS011;59762;49.998;14.858;2023-08-12T05:53:02;4.50;;;3.30;;
71888;SDS011;59762;49.998;14.858;2023-08-12T05:55:28;5.05;;;3.03;;
71888;SDS011;59762;49.998;14.858;2023-08-12T05:57:54;3.63;;;2.80;;
71888;SDS011;59762;49.998;14.858;2023-08-12T06:00:19;5.43;;;3.15;;
71888;SDS011;59762;49.998;14.858;2023-08-12T06:02:45;5.82;;;3.65;;
71888;SDS011;59762;49.998;14.858;2023-08-12T06:05:11;5.85;;;3.22;;
71888;SDS011;59762;49.998;14.858;2023-08-12T06:07:36;4.30;;;3.28;;
71888;SDS011;59762;49.998;14.858;2023-08-12T06:10:02;4.40;;;2.78;;
71888;SDS011;59762;49.998;14.858;2023-08-12T06:12:29;4.95;;;3.25;;
71888;SDS011;59762;49.998;14.858;2023-08-12T06:14:55;4.30;;;2.90;;
71888;SDS011;59762;49.998;14.858;2023-08-12T06:17:20;3.45;;;2.72;;
71888;SDS011;59762;49.998;14.858;2023-08-12T06:19:46;4.18;;;3.05;;
71888;SDS011;59762;49.998;14.858;2023-08-12T06:22:12;8.13;;;3.10;;
71888;SDS011;59762;49.998;14.858;2023-08-12T06:24:37;4.47;;;3.35;;
71888;SDS011;59762;49.998;14.858;2023-08-12T06:27:03;3.30;;;3.00;;
71888;SDS011;59762;49.998;14.858;2023-08-12T06:29:29;2.75;;;2.40;;
71888;SDS011;59762;49.998;14.858;2023-08-12T06:31:54;2.78;;;2.50;;
71888;SDS011;59762;49.998;14.858;2023-08-12T06:34:21;3.65;;;2.95;;
71888;SDS011;59762;49.998;14.858;2023-08-12T06:36:46;4.60;;;3.00;;
71888;SDS011;59762;49.998;14.858;2023-08-12T06:39:12;6.15;;;3.47;;
71888;SDS011;59762;49.998;14.858;2023-08-12T06:41:38;3.35;;;2.65;;
71888;SDS011;59762;49.998;14.858;2023-08-12T06:44:04;5.93;;;3.53;;
71888;SDS011;59762;49.998;14.858;2023-08-12T06:46:30;5.07;;;3.63;;
71888;SDS011;59762;49.998;14.858;2023-08-12T06:48:56;4.13;;;3.30;;
71888;SDS011;59762;49.998;14.858;2023-08-12T06:51:23;4.75;;;3.78;;
71888;SDS011;59762;49.998;14.858;2023-08-12T06:53:48;4.18;;;3.63;;
71888;SDS011;59762;49.998;14.858;2023-08-12T06:56:14;5.30;;;3.70;;
71888;SDS011;59762;49.998;14.858;2023-08-12T06:58:40;4.50;;;3.05;;
71888;SDS011;59762;49.998;14.858;2023-08-12T07:01:05;5.00;;;3.20;;
71888;SDS011;59762;49.998;14.858;2023-08-12T07:03:31;3.53;;;3.00;;
71888;SDS011;59762;49.998;14.858;2023-08-12T07:05:58;5.07;;;3.13;;
71888;SDS011;59762;49.998;14.858;2023-08-12T07:08:23;4.60;;;3.40;;
71888;SDS011;59762;49.998;14.858;2023-08-12T07:10:49;6.28;;;3.05;;
71888;SDS011;59762;49.998;14.858;2023-08-12T07:13:15;7.45;;;2.70;;
71888;SDS011;59762;49.998;14.858;2023-08-12T07:15:40;3.10;;;2.65;;
71888;SDS011;59762;49.998;14.858;2023-08-12T07:18:06;5.32;;;3.08;;
71888;SDS011;59762;49.998;14.858;2023-08-12T07:20:32;3.55;;;2.92;;
71888;SDS011;59762;49.998;14.858;2023-08-12T07:22:58;5.30;;;3.28;;
71888;SDS011;59762;49.998;14.858;2023-08-12T07:25:23;4.28;;;2.78;;
71888;SDS011;59762;49.998;14.858;2023-08-12T07:27:49;5.15;;;2.97;;
71888;SDS011;59762;49.998;14.858;2023-08-12T07:30:15;4.63;;;2.80;;
71888;SDS011;59762;49.998;14.858;2023-08-12T07:32:41;5.53;;;2.75;;
71888;SDS011;59762;49.998;14.858;2023-08-12T07:35:06;3.55;;;2.58;;
71888;SDS011;59762;49.998;14.858;2023-08-12T07:37:33;5.88;;;3.00;;
71888;SDS011;59762;49.998;14.858;2023-08-12T07:39:59;3.80;;;2.50;;
71888;SDS011;59762;49.998;14.858;2023-08-12T07:42:24;5.93;;;3.20;;
71888;SDS011;59762;49.998;14.858;2023-08-12T07:44:50;3.15;;;2.53;;
71888;SDS011;59762;49.998;14.858;2023-08-12T07:47:16;2.80;;;2.40;;
71888;SDS011;59762;49.998;14.858;2023-08-12T07:49:42;4.03;;;2.75;;
71888;SDS011;59762;49.998;14.858;2023-08-12T07:52:08;4.60;;;3.25;;
71888;SDS011;59762;49.998;14.858;2023-08-12T07:54:35;4.43;;;2.40;;
71888;SDS011;59762;49.998;14.858;2023-08-12T07:57:01;5.28;;;2.65;;
71888;SDS011;59762;49.998;14.858;2023-08-12T07:59:26;3.33;;;2.70;;
71888;SDS011;59762;49.998;14.858;2023-08-12T08:01:52;2.83;;;2.30;;
71888;SDS011;59762;49.998;14.858;2023-08-12T08:04:17;5.10;;;2.50;;
71888;SDS011;59762;49.998;14.858;2023-08-12T08:06:43;3.28;;;2.65;;
71888;SDS011;59762;49.998;14.858;2023-08-12T08:09:09;3.75;;;2.75;;
71888;SDS011;59762;49.998;14.858;2023-08-12T08:11:36;5.22;;;3.15;;
71888;SDS011;59762;49.998;14.858;2023-08-12T08:14:02;4.47;;;2.40;;
71888;SDS011;59762;49.998;14.858;2023-08-12T08:16:28;5.28;;;2.80;;
71888;SDS011;59762;49.998;14.858;2023-08-12T08:18:53;4.90;;;3.10;;
71888;SDS011;59762;49.998;14.858;2023-08-12T08:21:19;5.95;;;2.65;;
71888;SDS011;59762;49.998;14.858;2023-08-12T08:23:45;3.30;;;3.00;;
71888;SDS011;59762;49.998;14.858;2023-08-12T08:26:11;3.70;;;2.67;;
71888;SDS011;59762;49.998;14.858;2023-08-12T08:28:38;4.40;;;2.65;;
71888;SDS011;59762;49.998;14.858;2023-08-12T08:31:04;5.20;;;2.50;;
71888;SDS011;59762;49.998;14.858;2023-08-12T08:33:29;3.25;;;2.20;;
71888;SDS011;59762;49.998;14.858;2023-08-12T08:35:55;4.13;;;2.13;;
71888;SDS011;59762;49.998;14.858;2023-08-12T08:38:21;3.10;;;2.42;;
71888;SDS011;59762;49.998;14.858;2023-08-12T08:40:48;3.90;;;2.10;;
71888;SDS011;59762;49.998;14.858;2023-08-12T08:43:15;3.08;;;2.17;;
71888;SDS011;59762;49.998;14.858;2023-08-12T08:45:48;3.42;;;2.33;;
71888;SDS011;59762;49.998;14.858;2023-08-12T08:48:17;2.58;;;2.10;;
71888;SDS011;59762;49.998;14.858;2023-08-12T08:50:44;3.03;;;2.13;;
71888;SDS011;59762;49.998;14.858;2023-08-12T08:53:11;5.13;;;2.10;;
71888;SDS011;59762;49.998;14.858;2023-08-12T08:55:39;2.60;;;2.20;;
71888;SDS011;59762;49.998;14.858;2023-08-12T08:58:06;3.60;;;1.90;;
71888;SDS011;59762;49.998;14.858;2023-08-12T09:00:32;2.75;;;2.00;;
71888;SDS011;59762;49.998;14.858;2023-08-12T09:02:57;4.22;;;2.25;;
71888;SDS011;59762;49.998;14.858;2023-08-12T09:05:24;3.97;;;1.70;;
71888;SDS011;59762;49.998;14.858;2023-08-12T09:07:51;3.72;;;2.05;;
71888;SDS011;59762;49.998;14.858;2023-08-12T09:10:17;3.55;;;2.08;;
71888;SDS011;59762;49.998;14.858;2023-08-12T09:12:46;3.20;;;2.08;;
71888;SDS011;59762;49.998;14.858;2023-08-12T09:15:13;3.92;;;2.30;;
71888;SDS011;59762;49.998;14.858;2023-08-12T09:17:38;2.67;;;1.52;;
71888;SDS011;59762;49.998;14.858;2023-08-12T09:20:05;2.38;;;1.90;;
71888;SDS011;59762;49.998;14.858;2023-08-12T09:22:36;3.28;;;2.10;;
71888;SDS011;59762;49.998;14.858;2023-08-12T09:25:03;4.18;;;2.03;;
71888;SDS011;59762;49.998;14.858;2023-08-12T09:27:32;2.67;;;1.83;;
71888;SDS011;59762;49.998;14.858;2023-08-12T09:29:58;2.38;;;2.05;;
71888;SDS011;59762;49.998;14.858;2023-08-12T09:32:24;3.28;;;1.70;;
71888;SDS011;59762;49.998;14.858;2023-08-12T09:34:50;3.30;;;2.33;;
71888;SDS011;59762;49.998;14.858;2023-08-12T09:37:20;3.28;;;1.98;;
71888;SDS011;59762;49.998;14.858;2023-08-12T09:39:48;2.72;;;2.17;;
71888;SDS011;59762;49.998;14.858;2023-08-12T09:42:14;3.72;;;1.83;;
71888;SDS011;59762;49.998;14.858;2023-08-12T09:44:41;2.70;;;1.92;;
71888;SDS011;59762;49.998;14.858;2023-08-12T09:47:07;2.40;;;2.03;;
71888;SDS011;59762;49.998;14.858;2023-08-12T09:49:39;4.53;;;2.03;;
71888;SDS011;59762;49.998;14.858;2023-08-12T09:52:05;2.35;;;1.95;;
71888;SDS011;59762;49.998;14.858;2023-08-12T09:54:32;4.28;;;2.15;;
71888;SDS011;59762;49.998;14.858;2023-08-12T09:56:58;3.53;;;1.92;;
71888;SDS011;59762;49.998;14.858;2023-08-12T09:59:27;3.83;;;2.25;;
71888;SDS011;59762;49.998;14.858;2023-08-12T10:01:56;3.17;;;2.03;;
71888;SDS011;59762;49.998;14.858;2023-08-12T10:04:23;6.63;;;2.80;;
71888;SDS011;59762;49.998;14.858;2023-08-12T10:06:54;2.95;;;2.22;;
71888;SDS011;59762;49.998;14.858;2023-08-12T10:09:20;6.35;;;2.25;;
71888;SDS011;59762;49.998;14.858;2023-08-12T10:11:46;2.70;;;2.20;;
71888;SDS011;59762;49.998;14.858;2023-08-12T10:14:12;4.78;;;2.22;;
71888;SDS011;59762;49.998;14.858;2023-08-12T10:16:39;2.42;;;1.90;;
71888;SDS011;59762;49.998;14.858;2023-08-12T10:19:11;2.15;;;1.88;;
71888;SDS011;59762;49.998;14.858;2023-08-12T10:21:37;2.80;;;2.10;;
71888;SDS011;59762;49.998;14.858;2023-08-12T10:24:03;3.22;;;2.40;;
71888;SDS011;59762;49.998;14.858;2023-08-12T10:26:30;5.43;;;2.42;;
71888;SDS011;59762;49.998;14.858;2023-08-12T10:28:59;4.70;;;2.17;;
71888;SDS011;59762;49.998;14.858;2023-08-12T10:31:26;4.15;;;2.72;;
71888;SDS011;59762;49.998;14.858;2023-08-12T10:33:59;2.90;;;2.25;;
71888;SDS011;59762;49.998;14.858;2023-08-12T10:36:26;4.45;;;2.40;;
71888;SDS011;59762;49.998;14.858;2023-08-12T10:38:52;3.25;;;2.20;;
71888;SDS011;59762;49.998;14.858;2023-08-12T10:41:19;4.68;;;2.53;;
71888;SDS011;59762;49.998;14.858;2023-08-12T10:46:24;4.43;;;2.47;;
71888;SDS011;59762;49.998;14.858;2023-08-12T10:48:57;2.95;;;2.22;;
71888;SDS011;59762;49.998;14.858;2023-08-12T10:57:03;2.65;;;1.90;;
71888;SDS011;59762;49.998;14.858;2023-08-12T11:04:55;3.35;;;1.90;;
71888;SDS011;59762;49.998;14.858;2023-08-12T11:10:22;2.65;;;2.00;;
71888;SDS011;59762;49.998;14.858;2023-08-12T11:15:35;2.55;;;2.08;;
71888;SDS011;59762;49.998;14.858;2023-08-12T11:18:07;2.53;;;2.20;;
71888;SDS011;59762;49.998;14.858;2023-08-12T11:20:34;2.03;;;1.83;;
71888;SDS011;59762;49.998;14.858;2023-08-12T11:23:00;4.38;;;2.00;;
71888;SDS011;59762;49.998;14.858;2023-08-12T11:25:28;2.30;;;2.10;;
71888;SDS011;59762;49.998;14.858;2023-08-12T11:27:54;2.75;;;1.90;;
71888;SDS011;59762;49.998;14.858;2023-08-12T11:30:21;3.97;;;1.85;;
71888;SDS011;59762;49.998;14.858;2023-08-12T11:32:48;2.30;;;1.88;;
71888;SDS011;59762;49.998;14.858;2023-08-12T11:35:16;3.85;;;1.67;;
71888;SDS011;59762;49.998;14.858;2023-08-12T11:37:43;3.97;;;1.92;;
71888;SDS011;59762;49.998;14.858;2023-08-12T11:40:12;5.38;;;2.28;;
71888;SDS011;59762;49.998;14.858;2023-08-12T11:42:42;3.20;;;2.08;;
71888;SDS011;59762;49.998;14.858;2023-08-12T11:45:10;4.20;;;2.00;;
71888;SDS011;59762;49.998;14.858;2023-08-12T11:47:37;3.13;;;1.80;;
71888;SDS011;59762;49.998;14.858;2023-08-12T11:50:05;4.57;;;1.80;;
71888;SDS011;59762;49.998;14.858;2023-08-12T11:52:32;3.67;;;1.88;;
71888;SDS011;59762;49.998;14.858;2023-08-12T11:54:58;1.77;;;1.60;;
71888;SDS011;59762;49.998;14.858;2023-08-12T11:57:25;5.05;;;1.73;;
71888;SDS011;59762;49.998;14.858;2023-08-12T11:59:51;3.63;;;1.55;;
71888;SDS011;59762;49.998;14.858;2023-08-12T12:02:23;4.82;;;1.80;;
71888;SDS011;59762;49.998;14.858;2023-08-12T12:04:50;2.85;;;1.80;;
71888;SDS011;59762;49.998;14.858;2023-08-12T12:07:17;2.53;;;1.80;;
71888;SDS011;59762;49.998;14.858;2023-08-12T12:09:49;2.28;;;1.60;;
71888;SDS011;59762;49.998;14.858;2023-08-12T12:12:16;2.33;;;1.52;;
71888;SDS011;59762;49.998;14.858;2023-08-12T12:14:42;2.22;;;1.60;;
71888;SDS011;59762;49.998;14.858;2023-08-12T12:17:08;3.80;;;1.70;;
71888;SDS011;59762;49.998;14.858;2023-08-12T12:19:40;2.55;;;1.83;;
71888;SDS011;59762;49.998;14.858;2023-08-12T12:22:06;2.97;;;1.50;;
71888;SDS011;59762;49.998;14.858;2023-08-12T12:24:43;1.95;;;1.50;;
71888;SDS011;59762;49.998;14.858;2023-08-12T12:27:15;2.22;;;1.98;;
71888;SDS011;59762;49.998;14.858;2023-08-12T12:29:41;3.13;;;1.58;;
71888;SDS011;59762;49.998;14.858;2023-08-12T12:32:06;2.42;;;1.33;;
71888;SDS011;59762;49.998;14.858;2023-08-12T12:34:32;1.50;;;1.40;;
71888;SDS011;59762;49.998;14.858;2023-08-12T12:36:58;2.42;;;1.55;;
71888;SDS011;59762;49.998;14.858;2023-08-12T12:39:24;2.33;;;1.50;;
71888;SDS011;59762;49.998;14.858;2023-08-12T12:41:50;3.65;;;1.73;;
71888;SDS011;59762;49.998;14.858;2023-08-12T12:44:16;3.85;;;1.50;;
71888;SDS011;59762;49.998;14.858;2023-08-12T12:46:41;3.13;;;1.52;;
71888;SDS011;59762;49.998;14.858;2023-08-12T12:49:07;2.40;;;1.48;;
71888;SDS011;59762;49.998;14.858;2023-08-12T12:51:32;2.13;;;1.40;;
71888;SDS011;59762;49.998;14.858;2023-08-12T12:53:58;6.57;;;1.80;;
71888;SDS011;59762;49.998;14.858;2023-08-12T12:56:24;5.38;;;1.65;;
71888;SDS011;59762;49.998;14.858;2023-08-12T12:58:50;1.70;;;1.50;;
71888;SDS011;59762;49.998;14.858;2023-08-12T13:01:15;3.05;;;1.45;;
71888;SDS011;59762;49.998;14.858;2023-08-12T13:03:41;2.45;;;1.55;;
71888;SDS011;59762;49.998;14.858;2023-08-12T13:06:07;4.47;;;1.80;;
71888;SDS011;59762;49.998;14.858;2023-08-12T13:08:33;1.88;;;1.60;;
71888;SDS011;59762;49.998;14.858;2023-08-12T13:10:58;2.60;;;1.33;;
71888;SDS011;59762;49.998;14.858;2023-08-12T13:13:24;3.35;;;1.70;;
71888;SDS011;59762;49.998;14.858;2023-08-12T13:15:50;3.83;;;1.38;;
71888;SDS011;59762;49.998;14.858;2023-08-12T13:18:16;2.67;;;1.40;;
71888;SDS011;59762;49.998;14.858;2023-08-12T13:20:42;6.25;;;1.48;;
71888;SDS011;59762;49.998;14.858;2023-08-12T13:23:08;1.70;;;1.30;;
71888;SDS011;59762;49.998;14.858;2023-08-12T13:25:33;3.88;;;1.77;;
71888;SDS011;59762;49.998;14.858;2023-08-12T13:28:00;3.22;;;1.40;;
71888;SDS011;59762;49.998;14.858;2023-08-12T13:30:26;1.50;;;1.17;;
71888;SDS011;59762;49.998;14.858;2023-08-12T13:32:52;5.80;;;1.88;;
71888;SDS011;59762;49.998;14.858;2023-08-12T13:35:18;3.58;;;1.30;;
71888;SDS011;59762;49.998;14.858;2023-08-12T13:37:44;3.13;;;1.40;;
71888;SDS011;59762;49.998;14.858;2023-08-12T13:40:10;2.53;;;1.30;;
71888;SDS011;59762;49.998;14.858;2023-08-12T13:42:37;3.55;;;1.65;;
71888;SDS011;59762;49.998;14.858;2023-08-12T13:45:04;4.90;;;1.83;;
71888;SDS011;59762;49.998;14.858;2023-08-12T13:47:30;3.25;;;1.30;;
71888;SDS011;59762;49.998;14.858;2023-08-12T13:49:56;8.13;;;2.00;;
71888;SDS011;59762;49.998;14.858;2023-08-12T13:52:22;3.28;;;1.55;;
71888;SDS011;59762;49.998;14.858;2023-08-12T13:54:47;3.13;;;1.50;;
71888;SDS011;59762;49.998;14.858;2023-08-12T13:57:13;2.33;;;1.55;;
71888;SDS011;59762;49.998;14.858;2023-08-12T13:59:39;6.82;;;1.85;;
71888;SDS011;59762;49.998;14.858;2023-08-12T14:02:12;4.07;;;1.40;;
71888;SDS011;59762;49.998;14.858;2023-08-12T14:04:37;4.75;;;1.58;;
71888;SDS011;59762;49.998;14.858;2023-08-12T14:07:03;2.17;;;1.40;;
71888;SDS011;59762;49.998;14.858;2023-08-12T14:09:29;2.58;;;1.45;;
71888;SDS011;59762;49.998;14.858;2023-08-12T14:11:55;3.30;;;1.40;;
71888;SDS011;59762;49.998;14.858;2023-08-12T14:14:21;4.25;;;1.38;;
71888;SDS011;59762;49.998;14.858;2023-08-12T14:16:47;2.65;;;1.55;;
71888;SDS011;59762;49.998;14.858;2023-08-12T14:19:13;2.83;;;1.40;;
71888;SDS011;59762;49.998;14.858;2023-08-12T14:21:42;5.53;;;1.40;;
71888;SDS011;59762;49.998;14.858;2023-08-12T14:24:08;4.90;;;1.85;;
71888;SDS011;59762;49.998;14.858;2023-08-12T14:26:34;3.50;;;1.52;;
71888;SDS011;59762;49.998;14.858;2023-08-12T14:29:00;7.95;;;1.80;;
71888;SDS011;59762;49.998;14.858;2023-08-12T14:31:26;2.53;;;1.45;;
71888;SDS011;59762;49.998;14.858;2023-08-12T14:33:52;2.63;;;1.35;;
71888;SDS011;59762;49.998;14.858;2023-08-12T14:36:18;4.47;;;1.75;;
71888;SDS011;59762;49.998;14.858;2023-08-12T14:38:43;1.83;;;1.42;;
71888;SDS011;59762;49.998;14.858;2023-08-12T14:41:09;2.00;;;1.40;;
71888;SDS011;59762;49.998;14.858;2023-08-12T14:43:35;2.38;;;1.65;;
71888;SDS011;59762;49.998;14.858;2023-08-12T14:46:02;6.20;;;1.52;;
71888;SDS011;59762;49.998;14.858;2023-08-12T14:48:28;2.10;;;1.52;;
71888;SDS011;59762;49.998;14.858;2023-08-12T14:50:54;5.13;;;1.50;;